Blencoe, Iowa
Current Conditions -  °F | °C
As of 10:54 PM on Saturday 22 Nov 2014 (Local Time) from KTQE Reporting Station
Scattered Clouds Scattered Clouds  
Wind Chill: 52°   Ceiling: Unl
Heat Index: 52°   Visibility: 10mi
Dew Point: 49°   Wind: 14mph
Humidity: 89%   Direction: 160°SSE
Pressure: 29.54"   Gusts: NA
Location:  41.93°N, 96.08°W
Report Text: KTQE 230454Z AUTO 16012KT 10SM SCT027 11/09 A2954 RMK AO2 SLP002 T01110094
Loading
Personal Weather Stations






























Interactive Weather Map New forecast layout! Learn more

10-Day Weather Forecast

Advertisements
Track Severe Weather on mobile